createdAt,value
2023-04-09T00:04:34.285Z,94.15
2023-04-09T00:14:34.369Z,94.29
2023-04-09T00:24:34.501Z,94.29
2023-04-09T00:34:34.713Z,94.81
2023-04-09T00:44:34.833Z,95.12
2023-04-09T00:54:35.060Z,94.04
2023-04-09T01:04:35.314Z,93.43
2023-04-09T01:14:35.281Z,94.25
2023-04-09T01:24:35.413Z,95.32
2023-04-09T01:34:35.599Z,95.02
2023-04-09T01:44:35.731Z,94.46
2023-04-09T01:54:35.964Z,94.77
2023-04-09T02:04:36.098Z,94.97
2023-04-09T02:14:36.296Z,94.50
2023-04-09T02:24:36.450Z,95.43
2023-04-09T02:34:36.532Z,96.56
2023-04-09T02:44:36.773Z,97.08
2023-04-09T02:54:36.983Z,96.36
2023-04-09T03:04:37.106Z,96.36
2023-04-09T03:14:37.299Z,96.61
2023-04-09T03:24:37.454Z,96.15
2023-04-09T03:34:37.688Z,96.05
2023-04-09T03:44:37.927Z,95.68
2023-04-09T03:54:38.143Z,96.41
2023-04-09T04:04:38.317Z,96.34
2023-04-09T04:14:38.409Z,97.07
2023-04-09T04:24:38.668Z,96.76
2023-04-09T04:34:38.872Z,95.06
2023-04-09T04:44:39.124Z,94.34
2023-04-09T04:54:39.332Z,95.31
2023-04-09T05:04:39.489Z,96.08
2023-04-09T05:14:39.586Z,97.47
2023-04-09T05:24:40.178Z,97.87
2023-04-09T05:34:40.569Z,99.01
2023-04-09T05:44:40.100Z,99.57
2023-04-09T05:54:40.338Z,99.88
2023-04-09T06:04:40.692Z,97.88
2023-04-09T06:14:41.080Z,95.94
2023-04-09T06:24:40.833Z,94.75
2023-04-09T06:34:41.022Z,93.98
2023-04-09T06:44:41.293Z,90.39
2023-04-09T06:54:41.392Z,88.39
2023-04-09T07:04:41.641Z,86.60
2023-04-09T07:14:41.702Z,84.56
2023-04-09T07:24:41.951Z,84.00
2023-04-09T07:34:42.169Z,80.26
2023-04-09T07:44:42.382Z,78.61
2023-04-09T07:54:42.616Z,78.58
2023-04-09T08:04:42.969Z,78.50
2023-04-09T08:14:42.920Z,74.57
2023-04-09T08:24:43.046Z,72.58
2023-04-09T08:34:43.184Z,72.14
2023-04-09T08:44:43.430Z,73.40
2023-04-09T08:54:43.675Z,70.57
2023-04-09T09:04:43.752Z,72.11
2023-04-09T09:14:43.930Z,59.06
2023-04-09T09:24:44.190Z,57.95
2023-04-09T09:34:44.280Z,56.12
2023-04-09T09:44:44.499Z,55.80
2023-04-09T09:54:44.702Z,55.68
2023-04-09T10:04:44.941Z,51.01
2023-04-09T10:14:45.050Z,57.98
2023-04-09T10:24:45.268Z,55.76
2023-04-09T10:34:45.453Z,55.97
2023-04-09T10:44:46.105Z,58.07
2023-04-09T10:54:45.942Z,51.47
2023-04-09T11:04:46.083Z,59.03
2023-04-09T11:14:46.140Z,53.67
2023-04-09T11:24:46.360Z,45.61
2023-04-09T11:34:46.541Z,54.31
2023-04-09T11:44:46.782Z,43.75
2023-04-09T11:54:46.982Z,45.41
2023-04-09T12:04:47.355Z,40.38
2023-04-09T12:14:47.317Z,47.20
2023-04-09T12:24:47.706Z,49.13
2023-04-09T12:34:47.653Z,51.72
2023-04-09T12:44:47.889Z,48.77
2023-04-09T12:54:49.061Z,48.65
2023-04-09T13:04:48.192Z,49.48
2023-04-09T13:14:48.442Z,48.95
2023-04-09T13:24:48.530Z,46.91
2023-04-09T13:34:48.971Z,47.03
2023-04-09T13:44:48.859Z,47.97
2023-04-09T13:54:49.050Z,47.42
2023-04-09T14:04:49.334Z,42.70
2023-04-09T14:14:49.470Z,42.19
2023-04-09T14:24:49.578Z,40.36
2023-04-09T14:34:49.749Z,42.66
2023-04-09T14:44:50.027Z,49.89
2023-04-09T14:54:50.103Z,50.83
2023-04-09T15:04:50.469Z,43.32
2023-04-09T15:14:50.464Z,43.00
2023-04-09T15:24:50.688Z,40.34
2023-04-09T15:34:50.882Z,42.23
2023-04-09T15:44:51.114Z,43.02
2023-04-09T15:54:51.318Z,38.85
2023-04-09T16:04:51.551Z,39.65
2023-04-09T16:14:51.905Z,39.88
2023-04-09T16:24:51.940Z,41.89
2023-04-09T16:34:51.998Z,47.00
2023-04-09T16:44:52.435Z,40.76
2023-04-09T16:54:52.425Z,41.06
2023-04-09T17:04:52.547Z,40.55
2023-04-09T17:14:52.733Z,45.48
2023-04-09T17:24:52.975Z,49.40
2023-04-09T17:34:53.154Z,51.64
2023-04-09T17:44:53.273Z,52.62
2023-04-09T17:54:53.473Z,55.28
2023-04-09T18:04:53.745Z,56.33
2023-04-09T18:14:53.849Z,61.04
2023-04-09T18:24:53.993Z,67.32
2023-04-09T18:34:54.205Z,67.96
2023-04-09T18:44:54.330Z,68.54
2023-04-09T18:54:54.797Z,65.94
2023-04-09T19:04:54.742Z,65.06
2023-04-09T19:14:54.856Z,67.07
2023-04-09T19:24:54.982Z,69.49
2023-04-09T19:34:55.182Z,71.07
2023-04-09T19:44:55.412Z,71.31
2023-04-09T19:54:55.862Z,70.79
2023-04-09T20:04:55.762Z,73.54
2023-04-09T20:14:56.111Z,75.05
2023-04-09T20:24:56.202Z,75.87
2023-04-09T20:34:56.311Z,75.36
2023-04-09T20:44:56.527Z,76.12
2023-04-09T20:54:56.725Z,73.23
2023-04-09T21:04:57.097Z,71.82
2023-04-09T21:14:57.062Z,73.54
2023-04-09T21:24:57.194Z,73.09
2023-04-09T21:34:57.385Z,73.64
2023-04-09T21:44:57.504Z,72.16
2023-04-09T21:54:57.628Z,69.80
2023-04-09T22:04:57.971Z,72.47
2023-04-09T22:14:57.872Z,77.08
2023-04-09T22:24:58.137Z,75.39
2023-04-09T22:34:58.468Z,77.94
2023-04-09T22:44:58.764Z,78.56
2023-04-09T22:54:58.520Z,79.87
2023-04-09T23:04:58.714Z,78.94
2023-04-09T23:14:58.862Z,80.53
2023-04-09T23:24:58.993Z,79.46
2023-04-09T23:34:59.173Z,80.84
2023-04-09T23:44:59.303Z,78.08
2023-04-09T23:54:59.482Z,78.01
